Time,TemperatureF,DewpointF,PressureIn,WindDirection,WindDirectionDegrees,WindSpeedMPH,WindSpeedGustMPH,Humidity,HourlyPrecipIn,Conditions,Clouds,dailyrainin,SoftwareType,DateUTC
2013-04-26 00:01:00,49.6,35.8,30.43,NE,38,0.0,1.0,59,0.00,,,0.00,Wunderground v.1.15,2013-04-26 04:01:00,
2013-04-26 00:06:00,49.4,35.7,30.43,NE,42,0.0,3.0,59,0.00,,,0.00,Wunderground v.1.15,2013-04-26 04:06:00,
2013-04-26 00:11:00,49.2,35.5,30.43,NE,42,0.0,0.0,59,0.00,,,0.00,Wunderground v.1.15,2013-04-26 04:11:00,
2013-04-26 00:16:00,49.0,35.3,30.43,NE,42,0.0,1.0,59,0.00,,,0.00,Wunderground v.1.15,2013-04-26 04:16:00,
2013-04-26 00:21:00,48.8,35.5,30.43,NE,42,0.0,0.0,60,0.00,,,0.00,Wunderground v.1.15,2013-04-26 04:21:00,
2013-04-26 00:26:00,48.6,35.7,30.43,NE,42,0.0,0.0,61,0.00,,,0.00,Wunderground v.1.15,2013-04-26 04:26:00,
2013-04-26 00:31:00,48.3,35.9,30.43,NE,42,0.0,0.0,62,0.00,,,0.00,Wunderground v.1.15,2013-04-26 04:31:00,
2013-04-26 00:36:00,48.0,35.6,30.43,NE,42,0.0,1.0,62,0.00,,,0.00,Wunderground v.1.15,2013-04-26 04:36:00,
2013-04-26 00:41:00,47.8,36.2,30.43,NE,42,0.0,0.0,64,0.00,,,0.00,Wunderground v.1.15,2013-04-26 04:41:00,
2013-04-26 00:46:00,47.5,35.5,30.43,NE,42,0.0,1.0,63,0.00,,,0.00,Wunderground v.1.15,2013-04-26 04:46:00,
2013-04-26 00:51:00,47.2,36.8,30.44,NE,42,0.0,0.0,67,0.00,,,0.00,Wunderground v.1.15,2013-04-26 04:51:00,
2013-04-26 00:56:00,46.8,36.0,30.44,NE,42,0.0,1.0,66,0.00,,,0.00,Wunderground v.1.15,2013-04-26 04:56:00,
2013-04-26 01:01:00,46.5,35.4,30.44,NE,42,0.0,1.0,65,0.00,,,0.00,Wunderground v.1.15,2013-04-26 05:01:00,
2013-04-26 01:06:00,46.2,36.2,30.44,NE,42,0.0,1.0,68,0.00,,,0.00,Wunderground v.1.15,2013-04-26 05:06:00,
2013-04-26 01:11:00,46.0,35.3,30.44,NE,42,0.0,0.0,66,0.00,,,0.00,Wunderground v.1.15,2013-04-26 05:11:00,
2013-04-26 01:16:00,45.9,35.9,30.44,NE,42,0.0,1.0,68,0.00,,,0.00,Wunderground v.1.15,2013-04-26 05:16:00,
2013-04-26 01:21:00,45.8,34.7,30.44,NNW,329,0.0,1.0,65,0.00,,,0.00,Wunderground v.1.15,2013-04-26 05:21:00,
2013-04-26 01:26:00,45.9,34.8,30.44,NNW,345,0.0,2.0,65,0.00,,,0.00,Wunderground v.1.15,2013-04-26 05:26:00,
2013-04-26 01:31:00,46.0,34.9,30.44,NNW,345,2.0,2.0,65,0.00,,,0.00,Wunderground v.1.15,2013-04-26 05:31:00,
2013-04-26 01:36:00,46.1,35.0,30.44,North,10,0.0,2.0,65,0.00,,,0.00,Wunderground v.1.15,2013-04-26 05:36:00,
2013-04-26 01:41:00,46.1,35.0,30.44,North,5,0.0,1.0,65,0.00,,,0.00,Wunderground v.1.15,2013-04-26 05:41:00,
2013-04-26 01:46:00,46.1,35.4,30.44,North,5,0.0,2.0,66,0.00,,,0.00,Wunderground v.1.15,2013-04-26 05:46:00,
2013-04-26 01:51:00,46.0,34.9,30.44,NNE,22,0.0,1.0,65,0.00,,,0.00,Wunderground v.1.15,2013-04-26 05:51:00,
2013-04-26 01:56:00,45.9,34.8,30.44,NNE,19,1.0,3.0,65,0.00,,,0.00,Wunderground v.1.15,2013-04-26 05:56:00,
2013-04-26 02:01:00,45.9,34.8,30.44,NNE,19,0.0,1.0,65,0.00,,,0.00,Wunderground v.1.15,2013-04-26 06:01:00,
2013-04-26 02:06:00,45.8,34.7,30.44,NNE,19,0.0,2.0,65,0.00,,,0.00,Wunderground v.1.15,2013-04-26 06:06:00,
2013-04-26 02:11:00,45.7,35.0,30.44,NNE,25,0.0,1.0,66,0.00,,,0.00,Wunderground v.1.15,2013-04-26 06:11:00,
2013-04-26 02:16:00,45.6,34.9,30.44,NE,36,0.0,2.0,66,0.00,,,0.00,Wunderground v.1.15,2013-04-26 06:16:00,
2013-04-26 02:21:00,45.5,34.8,30.44,North,355,2.0,3.0,66,0.00,,,0.00,Wunderground v.1.15,2013-04-26 06:21:00,
2013-04-26 02:26:00,45.4,34.7,30.44,NNE,13,0.0,3.0,66,0.00,,,0.00,Wunderground v.1.15,2013-04-26 06:26:00,
2013-04-26 02:31:00,45.3,34.6,30.44,North,5,0.0,4.0,66,0.00,,,0.00,Wunderground v.1.15,2013-04-26 06:31:00,
2013-04-26 02:36:00,45.2,34.5,30.43,NNE,18,2.0,4.0,66,0.00,,,0.00,Wunderground v.1.15,2013-04-26 06:36:00,
2013-04-26 02:41:00,45.1,34.8,30.44,North,360,0.0,1.0,67,0.00,,,0.00,Wunderground v.1.15,2013-04-26 06:41:00,
2013-04-26 02:46:00,45.0,34.7,30.44,NNE,33,0.0,3.0,67,0.00,,,0.00,Wunderground v.1.15,2013-04-26 06:46:00,
2013-04-26 02:51:00,44.9,35.0,30.44,NNE,27,1.0,4.0,68,0.00,,,0.00,Wunderground v.1.15,2013-04-26 06:51:00,
2013-04-26 02:56:00,44.8,34.9,30.44,NE,34,0.0,7.0,68,0.00,,,0.00,Wunderground v.1.15,2013-04-26 06:56:00,
2013-04-26 03:01:00,44.8,35.2,30.44,NNE,25,1.0,3.0,69,0.00,,,0.00,Wunderground v.1.15,2013-04-26 07:01:00,
2013-04-26 03:06:00,44.7,35.1,30.44,NNE,29,0.0,4.0,69,0.00,,,0.00,Wunderground v.1.15,2013-04-26 07:06:00,
2013-04-26 03:11:00,44.5,35.0,30.44,NE,36,5.0,5.0,69,0.00,,,0.00,Wunderground v.1.15,2013-04-26 07:11:00,
2013-04-26 03:16:00,44.3,34.8,30.44,NNE,24,1.0,5.0,69,0.00,,,0.00,Wunderground v.1.15,2013-04-26 07:16:00,
2013-04-26 03:21:00,44.1,34.6,30.44,NNE,13,0.0,1.0,69,0.00,,,0.00,Wunderground v.1.15,2013-04-26 07:21:00,
2013-04-26 03:26:00,43.9,34.7,30.44,NNW,338,0.0,5.0,70,0.00,,,0.00,Wunderground v.1.15,2013-04-26 07:26:00,
2013-04-26 03:31:00,43.7,34.9,30.44,NNW,344,0.0,1.0,71,0.00,,,0.00,Wunderground v.1.15,2013-04-26 07:31:00,
2013-04-26 03:36:00,43.5,34.7,30.44,NNW,344,0.0,1.0,71,0.00,,,0.00,Wunderground v.1.15,2013-04-26 07:36:00,
2013-04-26 03:41:00,43.4,34.6,30.44,North,11,0.0,4.0,71,0.00,,,0.00,Wunderground v.1.15,2013-04-26 07:41:00,
2013-04-26 03:46:00,43.2,34.4,30.44,NE,34,1.0,7.0,71,0.00,,,0.00,Wunderground v.1.15,2013-04-26 07:46:00,
2013-04-26 03:51:00,43.1,34.3,30.44,North,5,2.0,4.0,71,0.00,,,0.00,Wunderground v.1.15,2013-04-26 07:51:00,
2013-04-26 03:56:00,43.0,34.6,30.44,NE,35,0.0,4.0,72,0.00,,,0.00,Wunderground v.1.15,2013-04-26 07:56:00,
2013-04-26 04:01:00,42.9,34.1,30.44,North,349,2.0,2.0,71,0.00,,,0.00,Wunderground v.1.15,2013-04-26 08:01:00,
2013-04-26 04:06:00,42.9,34.1,30.44,NNE,12,0.0,5.0,71,0.00,,,0.00,Wunderground v.1.15,2013-04-26 08:06:00,
2013-04-26 04:11:00,42.8,34.0,30.43,NNE,13,0.0,1.0,71,0.00,,,0.00,Wunderground v.1.15,2013-04-26 08:11:00,
2013-04-26 04:16:00,42.8,34.4,30.44,NNE,30,5.0,5.0,72,0.00,,,0.00,Wunderground v.1.15,2013-04-26 08:16:00,
2013-04-26 04:21:00,42.9,34.1,30.43,North,355,0.0,3.0,71,0.00,,,0.00,Wunderground v.1.15,2013-04-26 08:21:00,
2013-04-26 04:26:00,42.9,34.5,30.44,NE,36,0.0,3.0,72,0.00,,,0.00,Wunderground v.1.15,2013-04-26 08:26:00,
2013-04-26 04:31:00,43.0,34.2,30.44,NNE,29,0.0,4.0,71,0.00,,,0.00,Wunderground v.1.15,2013-04-26 08:31:00,
2013-04-26 04:36:00,43.0,34.2,30.43,NNW,338,4.0,4.0,71,0.00,,,0.00,Wunderground v.1.15,2013-04-26 08:36:00,
2013-04-26 04:41:00,43.2,34.4,30.44,NE,34,2.0,6.0,71,0.00,,,0.00,Wunderground v.1.15,2013-04-26 08:41:00,
2013-04-26 04:46:00,43.2,34.4,30.43,NE,43,0.0,6.0,71,0.00,,,0.00,Wunderground v.1.15,2013-04-26 08:46:00,
2013-04-26 04:51:00,43.2,34.4,30.43,NNW,347,1.0,3.0,71,0.00,,,0.00,Wunderground v.1.15,2013-04-26 08:51:00,
2013-04-26 04:56:00,43.3,34.5,30.44,NE,39,0.0,3.0,71,0.00,,,0.00,Wunderground v.1.15,2013-04-26 08:56:00,
2013-04-26 05:01:00,43.2,34.4,30.44,NE,51,0.0,1.0,71,0.00,,,0.00,Wunderground v.1.15,2013-04-26 09:01:00,
2013-04-26 05:06:00,43.1,34.3,30.44,NNE,28,0.0,5.0,71,0.00,,,0.00,Wunderground v.1.15,2013-04-26 09:06:00,
2013-04-26 05:11:00,43.1,34.3,30.44,NNW,337,0.0,1.0,71,0.00,,,0.00,Wunderground v.1.15,2013-04-26 09:11:00,
2013-04-26 05:16:00,43.0,34.2,30.44,North,355,0.0,6.0,71,0.00,,,0.00,Wunderground v.1.15,2013-04-26 09:16:00,
2013-04-26 05:21:00,43.0,34.2,30.45,North,9,0.0,2.0,71,0.00,,,0.00,Wunderground v.1.15,2013-04-26 09:21:00,
2013-04-26 05:26:00,42.9,34.1,30.45,North,11,1.0,4.0,71,0.00,,,0.00,Wunderground v.1.15,2013-04-26 09:26:00,
2013-04-26 05:31:00,42.9,34.1,30.45,NNE,22,0.0,3.0,71,0.00,,,0.00,Wunderground v.1.15,2013-04-26 09:31:00,
2013-04-26 05:36:00,43.0,34.2,30.45,NNE,24,0.0,3.0,71,0.00,,,0.00,Wunderground v.1.15,2013-04-26 09:36:00,
2013-04-26 05:41:00,42.9,34.1,30.45,NNE,30,0.0,0.0,71,0.00,,,0.00,Wunderground v.1.15,2013-04-26 09:41:00,
2013-04-26 05:46:00,42.8,34.0,30.45,NNW,342,1.0,3.0,71,0.00,,,0.00,Wunderground v.1.15,2013-04-26 09:46:00,
2013-04-26 05:51:00,42.8,34.0,30.45,North,360,0.0,2.0,71,0.00,,,0.00,Wunderground v.1.15,2013-04-26 09:51:00,
2013-04-26 05:56:00,42.8,33.7,30.45,NNW,342,1.0,4.0,70,0.00,,,0.00,Wunderground v.1.15,2013-04-26 09:56:00,
2013-04-26 06:01:00,42.9,33.8,30.45,NNE,19,1.0,4.0,70,0.00,,,0.00,Wunderground v.1.15,2013-04-26 10:01:00,
2013-04-26 06:06:00,43.0,33.9,30.45,NE,35,0.0,4.0,70,0.00,,,0.00,Wunderground v.1.15,2013-04-26 10:06:00,
2013-04-26 06:11:00,43.0,34.2,30.46,NE,34,0.0,1.0,71,0.00,,,0.00,Wunderground v.1.15,2013-04-26 10:11:00,
2013-04-26 06:16:00,43.0,33.9,30.45,NE,34,1.0,1.0,70,0.00,,,0.00,Wunderground v.1.15,2013-04-26 10:16:00,
2013-04-26 06:21:00,43.0,33.9,30.46,North,9,0.0,1.0,70,0.00,,,0.00,Wunderground v.1.15,2013-04-26 10:21:00,
2013-04-26 06:26:00,43.0,33.9,30.46,North,11,0.0,2.0,70,0.00,,,0.00,Wunderground v.1.15,2013-04-26 10:26:00,
2013-04-26 06:31:00,42.9,33.8,30.46,NNE,29,0.0,3.0,70,0.00,,,0.00,Wunderground v.1.15,2013-04-26 10:31:00,
2013-04-26 06:36:00,42.8,33.7,30.46,NNE,17,1.0,3.0,70,0.00,,,0.00,Wunderground v.1.15,2013-04-26 10:36:00,
2013-04-26 06:41:00,42.8,33.7,30.46,NNE,19,0.0,2.0,70,0.00,,,0.00,Wunderground v.1.15,2013-04-26 10:41:00,
2013-04-26 06:46:00,42.7,33.9,30.47,North,9,0.0,2.0,71,0.00,,,0.00,Wunderground v.1.15,2013-04-26 10:46:00,
2013-04-26 06:51:00,42.7,33.9,30.47,NNE,24,0.0,2.0,71,0.00,,,0.00,Wunderground v.1.15,2013-04-26 10:51:00,
2013-04-26 06:56:00,42.6,33.9,30.47,NNE,24,2.0,3.0,71,0.00,,,0.00,Wunderground v.1.15,2013-04-26 10:56:00,
2013-04-26 07:01:00,42.6,33.9,30.47,NE,43,0.0,2.0,71,0.00,,,0.00,Wunderground v.1.15,2013-04-26 11:01:00,
2013-04-26 07:06:00,42.6,33.9,30.48,NNE,20,0.0,4.0,71,0.00,,,0.00,Wunderground v.1.15,2013-04-26 11:06:00,
2013-04-26 07:11:00,42.6,33.5,30.48,NNE,20,0.0,2.0,70,0.00,,,0.00,Wunderground v.1.15,2013-04-26 11:11:00,
2013-04-26 07:16:00,42.7,33.9,30.48,NNE,20,0.0,2.0,71,0.00,,,0.00,Wunderground v.1.15,2013-04-26 11:16:00,
2013-04-26 07:21:00,42.7,33.9,30.49,North,5,1.0,3.0,71,0.00,,,0.00,Wunderground v.1.15,2013-04-26 11:21:00,
2013-04-26 07:26:00,42.8,34.0,30.49,NNE,22,1.0,5.0,71,0.00,,,0.00,Wunderground v.1.15,2013-04-26 11:26:00,
2013-04-26 07:31:00,43.0,33.9,30.49,NNE,15,1.0,2.0,70,0.00,,,0.00,Wunderground v.1.15,2013-04-26 11:31:00,
2013-04-26 07:36:00,43.2,34.1,30.49,North,355,0.0,3.0,70,0.00,,,0.00,Wunderground v.1.15,2013-04-26 11:36:00,
2013-04-26 07:41:00,43.4,34.3,30.49,NE,36,0.0,4.0,70,0.00,,,0.00,Wunderground v.1.15,2013-04-26 11:41:00,
2013-04-26 07:46:00,43.7,34.6,30.49,NNW,348,1.0,4.0,70,0.00,,,0.00,Wunderground v.1.15,2013-04-26 11:46:00,
2013-04-26 07:51:00,44.0,34.8,30.50,North,9,0.0,5.0,70,0.00,,,0.00,Wunderground v.1.15,2013-04-26 11:51:00,
2013-04-26 07:56:00,44.2,34.3,30.50,NE,37,3.0,9.0,68,0.00,,,0.00,Wunderground v.1.15,2013-04-26 11:56:00,
2013-04-26 08:01:00,44.6,34.7,30.50,NNE,24,1.0,7.0,68,0.00,,,0.00,Wunderground v.1.15,2013-04-26 12:01:00,
2013-04-26 08:06:00,44.8,34.9,30.50,NNE,19,0.0,7.0,68,0.00,,,0.00,Wunderground v.1.15,2013-04-26 12:06:00,
2013-04-26 08:11:00,45.2,34.9,30.50,NNE,22,0.0,1.0,67,0.00,,,0.00,Wunderground v.1.15,2013-04-26 12:11:00,
2013-04-26 08:16:00,45.5,35.2,30.51,NNE,30,0.0,1.0,67,0.00,,,0.00,Wunderground v.1.15,2013-04-26 12:16:00,
2013-04-26 08:21:00,45.8,35.1,30.51,NE,36,1.0,5.0,66,0.00,,,0.00,Wunderground v.1.15,2013-04-26 12:21:00,
2013-04-26 08:26:00,46.1,35.0,30.50,North,5,0.0,5.0,65,0.00,,,0.00,Wunderground v.1.15,2013-04-26 12:26:00,
2013-04-26 08:31:00,46.4,35.3,30.51,North,360,0.0,3.0,65,0.00,,,0.00,Wunderground v.1.15,2013-04-26 12:31:00,
2013-04-26 08:36:00,46.7,35.6,30.51,NNE,18,0.0,3.0,65,0.00,,,0.00,Wunderground v.1.15,2013-04-26 12:36:00,
2013-04-26 08:41:00,47.0,35.8,30.51,East,85,0.0,4.0,65,0.00,,,0.00,Wunderground v.1.15,2013-04-26 12:41:00,
2013-04-26 08:46:00,47.3,36.1,30.51,NE,51,0.0,5.0,65,0.00,,,0.00,Wunderground v.1.15,2013-04-26 12:46:00,
2013-04-26 08:51:00,47.7,36.1,30.51,NE,51,0.0,1.0,64,0.00,,,0.00,Wunderground v.1.15,2013-04-26 12:51:00,
2013-04-26 08:56:00,48.2,36.6,30.51,NE,46,1.0,1.0,64,0.00,,,0.00,Wunderground v.1.15,2013-04-26 12:56:00,
2013-04-26 09:01:00,48.6,37.0,30.51,NE,46,0.0,1.0,64,0.00,,,0.00,Wunderground v.1.15,2013-04-26 13:01:00,
2013-04-26 09:06:00,49.0,36.5,30.51,NNW,337,0.0,2.0,62,0.00,,,0.00,Wunderground v.1.15,2013-04-26 13:06:00,
2013-04-26 09:11:00,49.5,37.0,30.51,North,5,0.0,1.0,62,0.00,,,0.00,Wunderground v.1.15,2013-04-26 13:11:00,
2013-04-26 09:16:00,50.0,37.5,30.51,North,360,0.0,2.0,62,0.00,,,0.00,Wunderground v.1.15,2013-04-26 13:16:00,
2013-04-26 09:21:00,50.4,36.2,30.52,NNE,18,0.0,3.0,58,0.00,,,0.00,Wunderground v.1.15,2013-04-26 13:21:00,
2013-04-26 09:26:00,50.8,36.5,30.52,North,5,0.0,5.0,58,0.00,,,0.00,Wunderground v.1.15,2013-04-26 13:26:00,
2013-04-26 09:31:00,51.3,37.4,30.52,North,5,0.0,1.0,59,0.00,,,0.00,Wunderground v.1.15,2013-04-26 13:31:00,
2013-04-26 09:36:00,51.7,37.8,30.52,North,5,0.0,1.0,59,0.00,,,0.00,Wunderground v.1.15,2013-04-26 13:36:00,
2013-04-26 09:41:00,52.2,38.7,30.51,North,5,0.0,0.0,60,0.00,,,0.00,Wunderground v.1.15,2013-04-26 13:41:00,
2013-04-26 09:46:00,52.7,37.0,30.51,NNE,29,0.0,5.0,55,0.00,,,0.00,Wunderground v.1.15,2013-04-26 13:46:00,
2013-04-26 09:51:00,53.0,37.7,30.52,NNE,29,0.0,1.0,56,0.00,,,0.00,Wunderground v.1.15,2013-04-26 13:51:00,
2013-04-26 09:56:00,53.3,37.1,30.51,NNW,348,0.0,2.0,54,0.00,,,0.00,Wunderground v.1.15,2013-04-26 13:56:00,
2013-04-26 10:01:00,53.7,38.8,30.52,NNE,20,0.0,1.0,57,0.00,,,0.00,Wunderground v.1.15,2013-04-26 14:01:00,
2013-04-26 10:06:00,54.0,37.2,30.52,North,9,2.0,4.0,53,0.00,,,0.00,Wunderground v.1.15,2013-04-26 14:06:00,
2013-04-26 10:11:00,54.1,38.3,30.52,NE,38,0.0,2.0,55,0.00,,,0.00,Wunderground v.1.15,2013-04-26 14:11:00,
2013-04-26 10:16:00,54.2,37.4,30.51,SE,142,0.0,2.0,53,0.00,,,0.00,Wunderground v.1.15,2013-04-26 14:16:00,
2013-04-26 10:21:00,54.4,37.6,30.51,NNE,30,0.0,4.0,53,0.00,,,0.00,Wunderground v.1.15,2013-04-26 14:21:00,
2013-04-26 10:26:00,54.7,38.4,30.51,SSE,164,2.0,4.0,54,0.00,,,0.00,Wunderground v.1.15,2013-04-26 14:26:00,
2013-04-26 10:31:00,55.1,39.2,30.51,South,177,0.0,1.0,55,0.00,,,0.00,Wunderground v.1.15,2013-04-26 14:31:00,
2013-04-26 10:36:00,55.4,40.0,30.51,SSE,161,0.0,2.0,56,0.00,,,0.00,Wunderground v.1.15,2013-04-26 14:36:00,
2013-04-26 10:41:00,55.7,39.8,30.50,SE,144,0.0,2.0,55,0.00,,,0.00,Wunderground v.1.15,2013-04-26 14:41:00,
2013-04-26 10:46:00,56.0,39.1,30.50,NE,50,1.0,3.0,53,0.00,,,0.00,Wunderground v.1.15,2013-04-26 14:46:00,
2013-04-26 10:51:00,56.2,38.8,30.50,NE,42,0.0,2.0,52,0.00,,,0.00,Wunderground v.1.15,2013-04-26 14:51:00,
2013-04-26 10:56:00,56.5,40.0,30.50,NNE,23,0.0,5.0,54,0.00,,,0.00,Wunderground v.1.15,2013-04-26 14:56:00,
2013-04-26 11:01:00,57.1,40.1,30.50,NE,38,0.0,1.0,53,0.00,,,0.00,Wunderground v.1.15,2013-04-26 15:01:00,
2013-04-26 11:06:00,57.8,41.3,30.50,South,173,3.0,4.0,54,0.00,,,0.00,Wunderground v.1.15,2013-04-26 15:06:00,
2013-04-26 11:11:00,58.5,40.4,30.51,SSE,163,0.0,5.0,51,0.00,,,0.00,Wunderground v.1.15,2013-04-26 15:11:00,
2013-04-26 11:16:00,58.8,40.7,30.51,NE,49,0.0,5.0,51,0.00,,,0.00,Wunderground v.1.15,2013-04-26 15:16:00,
2013-04-26 11:21:00,59.1,41.5,30.51,NE,49,1.0,2.0,52,0.00,,,0.00,Wunderground v.1.15,2013-04-26 15:21:00,
2013-04-26 11:26:00,59.6,41.4,30.51,SSE,154,0.0,9.0,51,0.00,,,0.00,Wunderground v.1.15,2013-04-26 15:26:00,
2013-04-26 11:31:00,60.3,41.6,30.51,SSE,168,2.0,12.0,50,0.00,,,0.00,Wunderground v.1.15,2013-04-26 15:31:00,
2013-04-26 11:36:00,60.7,41.9,30.51,SW,232,0.0,12.0,50,0.00,,,0.00,Wunderground v.1.15,2013-04-26 15:36:00,
2013-04-26 11:41:00,60.8,41.0,30.51,SSE,155,1.0,7.0,48,0.00,,,0.00,Wunderground v.1.15,2013-04-26 15:41:00,
2013-04-26 11:46:00,60.9,41.6,30.50,SSW,196,2.0,7.0,49,0.00,,,0.00,Wunderground v.1.15,2013-04-26 15:46:00,
2013-04-26 11:51:00,60.9,41.6,30.50,South,181,0.0,4.0,49,0.00,,,0.00,Wunderground v.1.15,2013-04-26 15:51:00,
2013-04-26 11:56:00,61.0,41.7,30.50,SSE,163,0.0,5.0,49,0.00,,,0.00,Wunderground v.1.15,2013-04-26 15:56:00,
2013-04-26 12:01:00,61.2,42.4,30.50,South,178,2.0,5.0,50,0.00,,,0.00,Wunderground v.1.15,2013-04-26 16:01:00,
2013-04-26 12:06:00,61.2,41.3,30.50,South,190,6.0,9.0,48,0.00,,,0.00,Wunderground v.1.15,2013-04-26 16:06:00,
2013-04-26 12:11:00,61.1,40.7,30.50,SSW,204,2.0,9.0,47,0.00,,,0.00,Wunderground v.1.15,2013-04-26 16:11:00,
2013-04-26 12:16:00,61.3,40.9,30.50,South,173,4.0,11.0,47,0.00,,,0.00,Wunderground v.1.15,2013-04-26 16:16:00,
2013-04-26 12:21:00,61.3,40.9,30.51,SSE,153,2.0,7.0,47,0.00,,,0.00,Wunderground v.1.15,2013-04-26 16:21:00,
2013-04-26 12:26:00,61.6,40.6,30.50,SSW,196,0.0,9.0,46,0.00,,,0.00,Wunderground v.1.15,2013-04-26 16:26:00,
2013-04-26 12:31:00,61.8,42.4,30.50,SSE,162,0.0,4.0,49,0.00,,,0.00,Wunderground v.1.15,2013-04-26 16:31:00,
2013-04-26 12:36:00,61.9,42.0,30.50,South,175,0.0,9.0,48,0.00,,,0.00,Wunderground v.1.15,2013-04-26 16:36:00,
2013-04-26 12:41:00,62.1,41.6,30.50,South,177,5.0,8.0,47,0.00,,,0.00,Wunderground v.1.15,2013-04-26 16:41:00,
2013-04-26 12:46:00,62.0,42.1,30.50,SSE,166,3.0,9.0,48,0.00,,,0.00,Wunderground v.1.15,2013-04-26 16:46:00,
2013-04-26 12:51:00,61.9,42.5,30.49,NE,51,0.0,7.0,49,0.00,,,0.00,Wunderground v.1.15,2013-04-26 16:51:00,
2013-04-26 12:56:00,62.1,42.2,30.49,NE,34,0.0,7.0,48,0.00,,,0.00,Wunderground v.1.15,2013-04-26 16:56:00,
2013-04-26 13:01:00,62.3,42.3,30.49,South,184,2.0,5.0,48,0.00,,,0.00,Wunderground v.1.15,2013-04-26 17:01:00,
2013-04-26 13:06:00,62.6,42.1,30.49,East,88,0.0,5.0,47,0.00,,,0.00,Wunderground v.1.15,2013-04-26 17:06:00,
2013-04-26 13:11:00,62.9,42.9,30.49,SSE,168,4.0,11.0,48,0.00,,,0.00,Wunderground v.1.15,2013-04-26 17:11:00,
2013-04-26 13:16:00,63.0,42.4,30.49,SSE,158,3.0,11.0,47,0.00,,,0.00,Wunderground v.1.15,2013-04-26 17:16:00,
2013-04-26 13:21:00,63.0,44.1,30.49,SSE,165,2.0,3.0,50,0.00,,,0.00,Wunderground v.1.15,2013-04-26 17:21:00,
2013-04-26 13:26:00,63.0,42.4,30.49,SE,146,0.0,7.0,47,0.00,,,0.00,Wunderground v.1.15,2013-04-26 17:26:00,
2013-04-26 13:31:00,63.2,42.6,30.49,South,184,2.0,3.0,47,0.00,,,0.00,Wunderground v.1.15,2013-04-26 17:31:00,
2013-04-26 13:37:00,63.1,43.1,30.49,SSE,165,3.0,4.0,48,0.00,,,0.00,Wunderground v.1.15,2013-04-26 17:37:00,
2013-04-26 13:42:00,63.2,43.7,30.49,SSE,158,2.0,3.0,49,0.00,,,0.00,Wunderground v.1.15,2013-04-26 17:42:00,
2013-04-26 13:47:00,63.4,42.8,30.48,SSE,150,1.0,5.0,47,0.00,,,0.00,Wunderground v.1.15,2013-04-26 17:47:00,
2013-04-26 13:51:00,63.6,44.6,30.48,NNE,25,1.0,2.0,50,0.00,,,0.00,Wunderground v.1.15,2013-04-26 17:51:00,
2013-04-26 13:56:00,63.7,42.5,30.48,SSE,159,1.0,7.0,46,0.00,,,0.00,Wunderground v.1.15,2013-04-26 17:56:00,
2013-04-26 14:01:00,63.7,43.6,30.48,South,169,1.0,2.0,48,0.00,,,0.00,Wunderground v.1.15,2013-04-26 18:01:00,
2013-04-26 14:07:00,64.0,43.9,30.48,South,190,0.0,3.0,48,0.00,,,0.00,Wunderground v.1.15,2013-04-26 18:07:00,
2013-04-26 14:12:00,64.2,44.1,30.48,SSW,207,2.0,6.0,48,0.00,,,0.00,Wunderground v.1.15,2013-04-26 18:12:00,
2013-04-26 14:17:00,64.3,44.7,30.47,NE,34,1.0,6.0,49,0.00,,,0.00,Wunderground v.1.15,2013-04-26 18:17:00,
2013-04-26 14:21:00,64.6,43.9,30.48,South,175,1.0,4.0,47,0.00,,,0.00,Wunderground v.1.15,2013-04-26 18:21:00,
2013-04-26 14:27:00,64.9,43.0,30.48,South,169,1.0,9.0,45,0.00,,,0.00,Wunderground v.1.15,2013-04-26 18:27:00,
2013-04-26 14:32:00,64.9,44.2,30.48,SSW,203,0.0,6.0,47,0.00,,,0.00,Wunderground v.1.15,2013-04-26 18:32:00,
2013-04-26 14:37:00,65.0,44.3,30.48,South,179,1.0,6.0,47,0.00,,,0.00,Wunderground v.1.15,2013-04-26 18:37:00,
2013-04-26 14:42:00,65.1,43.8,30.48,SSE,155,2.0,3.0,46,0.00,,,0.00,Wunderground v.1.15,2013-04-26 18:42:00,
2013-04-26 14:47:00,65.3,42.8,30.47,NNE,19,0.0,4.0,44,0.00,,,0.00,Wunderground v.1.15,2013-04-26 18:47:00,
2013-04-26 14:52:00,65.5,44.2,30.47,South,169,1.0,3.0,46,0.00,,,0.00,Wunderground v.1.15,2013-04-26 18:52:00,
2013-04-26 14:57:00,65.5,43.6,30.47,SSW,196,2.0,7.0,45,0.00,,,0.00,Wunderground v.1.15,2013-04-26 18:57:00,
2013-04-26 15:02:00,65.4,43.5,30.46,South,182,2.0,3.0,45,0.00,,,0.00,Wunderground v.1.15,2013-04-26 19:02:00,
2013-04-26 15:07:00,65.4,43.5,30.47,South,171,2.0,7.0,45,0.00,,,0.00,Wunderground v.1.15,2013-04-26 19:07:00,
2013-04-26 15:12:00,65.4,45.7,30.46,South,175,2.0,2.0,49,0.00,,,0.00,Wunderground v.1.15,2013-04-26 19:12:00,
2013-04-26 15:17:00,65.2,43.3,30.46,ENE,57,2.0,9.0,45,0.00,,,0.00,Wunderground v.1.15,2013-04-26 19:17:00,
2013-04-26 15:22:00,65.2,43.3,30.45,SSW,209,1.0,11.0,45,0.00,,,0.00,Wunderground v.1.15,2013-04-26 19:22:00,
2013-04-26 15:27:00,65.0,43.1,30.45,South,172,2.0,11.0,45,0.00,,,0.00,Wunderground v.1.15,2013-04-26 19:27:00,
2013-04-26 15:32:00,64.9,43.0,30.45,North,355,0.0,4.0,45,0.00,,,0.00,Wunderground v.1.15,2013-04-26 19:32:00,
2013-04-26 15:37:00,64.7,42.9,30.45,South,184,1.0,13.0,45,0.00,,,0.00,Wunderground v.1.15,2013-04-26 19:37:00,
2013-04-26 15:42:00,64.6,42.8,30.45,NE,53,0.0,6.0,45,0.00,,,0.00,Wunderground v.1.15,2013-04-26 19:42:00,
2013-04-26 15:47:00,64.6,43.3,30.44,NNE,17,0.0,6.0,46,0.00,,,0.00,Wunderground v.1.15,2013-04-26 19:47:00,
2013-04-26 15:52:00,64.7,43.4,30.44,NE,41,0.0,3.0,46,0.00,,,0.00,Wunderground v.1.15,2013-04-26 19:52:00,
2013-04-26 15:57:00,64.5,43.3,30.44,South,174,2.0,5.0,46,0.00,,,0.00,Wunderground v.1.15,2013-04-26 19:57:00,
2013-04-26 16:02:00,64.4,43.7,30.44,SSW,202,0.0,11.0,47,0.00,,,0.00,Wunderground v.1.15,2013-04-26 20:02:00,
2013-04-26 16:07:00,64.1,42.9,30.44,South,169,1.0,11.0,46,0.00,,,0.00,Wunderground v.1.15,2013-04-26 20:07:00,
2013-04-26 16:12:00,64.1,44.0,30.43,NE,51,0.0,2.0,48,0.00,,,0.00,Wunderground v.1.15,2013-04-26 20:12:00,
2013-04-26 16:17:00,64.0,43.4,30.43,SSE,168,0.0,6.0,47,0.00,,,0.00,Wunderground v.1.15,2013-04-26 20:17:00,
2013-04-26 16:22:00,64.0,43.9,30.43,South,178,2.0,3.0,48,0.00,,,0.00,Wunderground v.1.15,2013-04-26 20:22:00,
2013-04-26 16:27:00,64.0,43.4,30.43,South,171,3.0,5.0,47,0.00,,,0.00,Wunderground v.1.15,2013-04-26 20:27:00,
2013-04-26 16:32:00,64.0,43.4,30.43,SSE,157,2.0,4.0,47,0.00,,,0.00,Wunderground v.1.15,2013-04-26 20:32:00,
2013-04-26 16:37:00,64.1,43.4,30.43,SSE,163,1.0,4.0,47,0.00,,,0.00,Wunderground v.1.15,2013-04-26 20:37:00,
2013-04-26 16:42:00,64.3,44.2,30.43,East,83,0.0,3.0,48,0.00,,,0.00,Wunderground v.1.15,2013-04-26 20:42:00,
2013-04-26 16:47:00,64.5,43.8,30.43,SE,126,1.0,5.0,47,0.00,,,0.00,Wunderground v.1.15,2013-04-26 20:47:00,
2013-04-26 16:52:00,64.3,43.6,30.42,SSE,152,1.0,3.0,47,0.00,,,0.00,Wunderground v.1.15,2013-04-26 20:52:00,
2013-04-26 16:57:00,64.1,44.0,30.41,SSE,161,0.0,10.0,48,0.00,,,0.00,Wunderground v.1.15,2013-04-26 20:57:00,
2013-04-26 17:02:00,64.0,43.9,30.41,SSE,167,0.0,2.0,48,0.00,,,0.00,Wunderground v.1.15,2013-04-26 21:02:00,
2013-04-26 17:07:00,63.9,43.3,30.41,SSE,160,2.0,10.0,47,0.00,,,0.00,Wunderground v.1.15,2013-04-26 21:07:00,
2013-04-26 17:12:00,63.7,43.6,30.41,East,101,4.0,6.0,48,0.00,,,0.00,Wunderground v.1.15,2013-04-26 21:12:00,
2013-04-26 17:17:00,63.5,42.9,30.41,South,184,6.0,6.0,47,0.00,,,0.00,Wunderground v.1.15,2013-04-26 21:17:00,
2013-04-26 17:22:00,63.4,43.4,30.41,SSE,156,0.0,7.0,48,0.00,,,0.00,Wunderground v.1.15,2013-04-26 21:22:00,
2013-04-26 17:27:00,63.5,43.4,30.41,SSE,161,0.0,7.0,48,0.00,,,0.00,Wunderground v.1.15,2013-04-26 21:27:00,
2013-04-26 17:32:00,63.7,43.6,30.40,SSE,167,4.0,7.0,48,0.00,,,0.00,Wunderground v.1.15,2013-04-26 21:32:00,
2013-04-26 17:37:00,63.9,43.8,30.41,SW,215,2.0,7.0,48,0.00,,,0.00,Wunderground v.1.15,2013-04-26 21:37:00,
2013-04-26 17:42:00,64.0,43.9,30.41,South,180,2.0,4.0,48,0.00,,,0.00,Wunderground v.1.15,2013-04-26 21:42:00,
2013-04-26 17:47:00,63.9,44.4,30.41,SSW,194,1.0,9.0,49,0.00,,,0.00,Wunderground v.1.15,2013-04-26 21:47:00,
2013-04-26 17:52:00,63.9,43.3,30.41,South,169,1.0,6.0,47,0.00,,,0.00,Wunderground v.1.15,2013-04-26 21:52:00,
2013-04-26 17:57:00,63.8,44.3,30.42,South,181,3.0,7.0,49,0.00,,,0.00,Wunderground v.1.15,2013-04-26 21:57:00,
2013-04-26 18:02:00,63.8,43.7,30.42,SSE,157,0.0,2.0,48,0.00,,,0.00,Wunderground v.1.15,2013-04-26 22:02:00,
2013-04-26 18:07:00,63.9,43.8,30.42,South,179,1.0,7.0,48,0.00,,,0.00,Wunderground v.1.15,2013-04-26 22:07:00,
2013-04-26 18:12:00,63.8,43.7,30.42,SSE,161,2.0,4.0,48,0.00,,,0.00,Wunderground v.1.15,2013-04-26 22:12:00,
2013-04-26 18:17:00,63.6,43.5,30.42,South,170,1.0,6.0,48,0.00,,,0.00,Wunderground v.1.15,2013-04-26 22:17:00,
2013-04-26 18:22:00,63.3,43.8,30.42,SSE,163,1.0,2.0,49,0.00,,,0.00,Wunderground v.1.15,2013-04-26 22:22:00,
2013-04-26 18:27:00,63.1,43.6,30.42,SSE,159,0.0,5.0,49,0.00,,,0.00,Wunderground v.1.15,2013-04-26 22:27:00,
2013-04-26 18:32:00,62.8,43.3,30.42,South,173,2.0,2.0,49,0.00,,,0.00,Wunderground v.1.15,2013-04-26 22:32:00,
2013-04-26 18:37:00,62.6,43.7,30.43,South,178,1.0,4.0,50,0.00,,,0.00,Wunderground v.1.15,2013-04-26 22:37:00,
2013-04-26 18:42:00,62.3,42.9,30.43,NNE,24,1.0,7.0,49,0.00,,,0.00,Wunderground v.1.15,2013-04-26 22:42:00,
2013-04-26 18:47:00,62.2,42.8,30.43,NE,49,0.0,7.0,49,0.00,,,0.00,Wunderground v.1.15,2013-04-26 22:47:00,
2013-04-26 18:52:00,62.1,43.2,30.43,SSW,193,0.0,1.0,50,0.00,,,0.00,Wunderground v.1.15,2013-04-26 22:52:00,
2013-04-26 18:57:00,62.0,43.1,30.44,NNE,26,1.0,2.0,50,0.00,,,0.00,Wunderground v.1.15,2013-04-26 22:57:00,
2013-04-26 19:02:00,61.9,43.6,30.45,NNE,26,0.0,1.0,51,0.00,,,0.00,Wunderground v.1.15,2013-04-26 23:02:00,
2013-04-26 19:07:00,61.9,43.0,30.45,SE,129,2.0,2.0,50,0.00,,,0.00,Wunderground v.1.15,2013-04-26 23:07:00,
2013-04-26 19:12:00,61.8,43.0,30.45,South,186,0.0,5.0,50,0.00,,,0.00,Wunderground v.1.15,2013-04-26 23:12:00,
2013-04-26 19:17:00,61.7,42.9,30.45,South,181,1.0,5.0,50,0.00,,,0.00,Wunderground v.1.15,2013-04-26 23:17:00,
2013-04-26 19:22:00,61.7,42.9,30.45,South,182,0.0,1.0,50,0.00,,,0.00,Wunderground v.1.15,2013-04-26 23:22:00,
2013-04-26 19:27:00,61.6,43.3,30.45,South,182,1.0,1.0,51,0.00,,,0.00,Wunderground v.1.15,2013-04-26 23:27:00,
2013-04-26 19:32:00,61.5,43.2,30.45,South,182,1.0,1.0,51,0.00,,,0.00,Wunderground v.1.15,2013-04-26 23:32:00,
2013-04-26 19:37:00,61.4,43.1,30.45,South,182,0.0,1.0,51,0.00,,,0.00,Wunderground v.1.15,2013-04-26 23:37:00,
2013-04-26 19:42:00,61.4,43.6,30.44,South,182,0.0,1.0,52,0.00,,,0.00,Wunderground v.1.15,2013-04-26 23:42:00,
2013-04-26 19:47:00,61.2,43.4,30.45,NE,36,0.0,2.0,52,0.00,,,0.00,Wunderground v.1.15,2013-04-26 23:47:00,
2013-04-26 19:52:00,61.1,44.3,30.46,NE,36,0.0,0.0,54,0.00,,,0.00,Wunderground v.1.15,2013-04-26 23:52:00,
2013-04-26 20:05:00,60.7,43.5,30.46,NE,37,0.0,1.0,53,0.00,,,0.00,Wunderground v.1.15,2013-04-27 00:05:00,
2013-04-26 20:10:00,60.6,42.9,30.46,NE,37,0.0,0.0,52,0.00,,,0.00,Wunderground v.1.15,2013-04-27 00:10:00,
2013-04-26 20:15:00,60.5,43.3,30.47,NE,37,0.0,0.0,53,0.00,,,0.00,Wunderground v.1.15,2013-04-27 00:15:00,
2013-04-26 20:20:00,60.3,43.6,30.47,NE,37,0.0,0.0,54,0.00,,,0.00,Wunderground v.1.15,2013-04-27 00:20:00,
2013-04-26 20:25:00,60.2,43.5,30.47,NE,37,0.0,0.0,54,0.00,,,0.00,Wunderground v.1.15,2013-04-27 00:25:00,
2013-04-26 20:30:00,60.1,43.4,30.46,NE,37,0.0,0.0,54,0.00,,,0.00,Wunderground v.1.15,2013-04-27 00:30:00,
2013-04-26 20:35:00,60.0,43.8,30.45,NE,37,0.0,0.0,55,0.00,,,0.00,Wunderground v.1.15,2013-04-27 00:35:00,
2013-04-26 20:40:00,59.8,44.1,30.46,NE,37,0.0,0.0,56,0.00,,,0.00,Wunderground v.1.15,2013-04-27 00:40:00,
2013-04-26 20:45:00,59.5,44.7,30.46,NE,37,0.0,0.0,58,0.00,,,0.00,Wunderground v.1.15,2013-04-27 00:45:00,
2013-04-26 20:50:00,59.1,44.8,30.45,NE,37,0.0,0.0,59,0.00,,,0.00,Wunderground v.1.15,2013-04-27 00:50:00,
2013-04-26 20:55:00,58.8,44.5,30.45,NE,37,0.0,0.0,59,0.00,,,0.00,Wunderground v.1.15,2013-04-27 00:55:00,
2013-04-26 21:00:00,58.8,44.0,30.45,NE,37,0.0,0.0,58,0.00,,,0.00,Wunderground v.1.15,2013-04-27 01:00:00,
2013-04-26 21:05:00,58.5,44.2,30.45,NE,37,0.0,1.0,59,0.00,,,0.00,Wunderground v.1.15,2013-04-27 01:05:00,
2013-04-26 21:10:00,58.2,43.9,30.45,NE,37,0.0,0.0,59,0.00,,,0.00,Wunderground v.1.15,2013-04-27 01:10:00,
2013-04-26 21:15:00,58.0,46.3,30.46,NE,37,0.0,0.0,65,0.00,,,0.00,Wunderground v.1.15,2013-04-27 01:15:00,
2013-04-26 21:20:00,57.6,45.1,30.46,NE,37,0.0,0.0,63,0.00,,,0.00,Wunderground v.1.15,2013-04-27 01:20:00,
2013-04-26 21:25:00,57.3,44.8,30.46,NE,37,0.0,0.0,63,0.00,,,0.00,Wunderground v.1.15,2013-04-27 01:25:00,
2013-04-26 21:30:00,57.1,44.6,30.45,NE,37,0.0,0.0,63,0.00,,,0.00,Wunderground v.1.15,2013-04-27 01:30:00,
2013-04-26 21:35:00,57.0,45.3,30.45,NE,37,0.0,1.0,65,0.00,,,0.00,Wunderground v.1.15,2013-04-27 01:35:00,
2013-04-26 21:40:00,56.8,46.0,30.45,NE,37,0.0,0.0,67,0.00,,,0.00,Wunderground v.1.15,2013-04-27 01:40:00,
2013-04-26 21:45:00,56.7,45.9,30.45,NE,37,0.0,0.0,67,0.00,,,0.00,Wunderground v.1.15,2013-04-27 01:45:00,
2013-04-26 21:50:00,56.6,45.8,30.45,NE,37,0.0,0.0,67,0.00,,,0.00,Wunderground v.1.15,2013-04-27 01:50:00,
2013-04-26 21:55:00,56.4,45.2,30.44,NE,37,0.0,0.0,66,0.00,,,0.00,Wunderground v.1.15,2013-04-27 01:55:00,
2013-04-26 22:00:00,56.4,46.4,30.44,NE,37,0.0,0.0,69,0.00,,,0.00,Wunderground v.1.15,2013-04-27 02:00:00,
2013-04-26 22:05:00,56.3,47.0,30.44,NE,37,0.0,0.0,71,0.00,,,0.00,Wunderground v.1.15,2013-04-27 02:05:00,
2013-04-26 22:10:00,56.2,46.2,30.43,NE,37,0.0,0.0,69,0.00,,,0.00,Wunderground v.1.15,2013-04-27 02:10:00,
2013-04-26 22:15:00,56.1,46.1,30.43,NE,37,0.0,0.0,69,0.00,,,0.00,Wunderground v.1.15,2013-04-27 02:15:00,
2013-04-26 22:20:00,56.0,45.2,30.43,NE,37,0.0,0.0,67,0.00,,,0.00,Wunderground v.1.15,2013-04-27 02:20:00,
2013-04-26 22:25:00,56.0,47.1,30.44,NE,37,0.0,0.0,72,0.00,,,0.00,Wunderground v.1.15,2013-04-27 02:25:00,
2013-04-26 22:30:00,55.8,47.3,30.45,NE,37,0.0,0.0,73,0.00,,,0.00,Wunderground v.1.15,2013-04-27 02:30:00,
2013-04-26 22:35:00,55.5,45.9,30.44,NE,37,0.0,0.0,70,0.00,,,0.00,Wunderground v.1.15,2013-04-27 02:35:00,
2013-04-26 22:40:00,55.4,45.4,30.44,NE,37,0.0,0.0,69,0.00,,,0.00,Wunderground v.1.15,2013-04-27 02:40:00,
2013-04-26 22:45:00,55.3,46.1,30.44,NE,37,0.0,0.0,71,0.00,,,0.00,Wunderground v.1.15,2013-04-27 02:45:00,
2013-04-26 22:50:00,55.2,45.6,30.44,NE,37,0.0,0.0,70,0.00,,,0.00,Wunderground v.1.15,2013-04-27 02:50:00,
2013-04-26 22:55:00,55.1,45.9,30.44,NE,37,0.0,0.0,71,0.00,,,0.00,Wunderground v.1.15,2013-04-27 02:55:00,
2013-04-26 23:00:00,55.0,46.5,30.44,NE,37,0.0,0.0,73,0.00,,,0.00,Wunderground v.1.15,2013-04-27 03:00:00,
2013-04-26 23:05:00,54.9,45.3,30.44,NE,37,0.0,0.0,70,0.00,,,0.00,Wunderground v.1.15,2013-04-27 03:05:00,
2013-04-26 23:10:00,54.8,45.2,30.44,NE,37,0.0,0.0,70,0.00,,,0.00,Wunderground v.1.15,2013-04-27 03:10:00,
2013-04-26 23:15:00,54.6,44.6,30.43,NE,37,0.0,0.0,69,0.00,,,0.00,Wunderground v.1.15,2013-04-27 03:15:00,
2013-04-26 23:20:00,54.6,45.0,30.43,NE,37,0.0,0.0,70,0.00,,,0.00,Wunderground v.1.15,2013-04-27 03:20:00,
2013-04-26 23:25:00,54.6,45.0,30.44,NE,37,0.0,0.0,70,0.00,,,0.00,Wunderground v.1.15,2013-04-27 03:25:00,
2013-04-26 23:30:00,54.6,46.1,30.44,NE,37,0.0,0.0,73,0.00,,,0.00,Wunderground v.1.15,2013-04-27 03:30:00,
2013-04-26 23:35:00,54.6,45.4,30.44,NE,37,0.0,0.0,71,0.00,,,0.00,Wunderground v.1.15,2013-04-27 03:35:00,
2013-04-26 23:40:00,54.4,45.6,30.45,NE,37,0.0,0.0,72,0.00,,,0.00,Wunderground v.1.15,2013-04-27 03:40:00,
2013-04-26 23:45:00,54.3,46.2,30.45,NE,37,0.0,0.0,74,0.00,,,0.00,Wunderground v.1.15,2013-04-27 03:45:00,
2013-04-26 23:50:00,54.1,44.9,30.45,NE,37,0.0,0.0,71,0.00,,,0.00,Wunderground v.1.15,2013-04-27 03:50:00,
2013-04-26 23:55:00,54.1,44.5,30.45,NE,37,0.0,0.0,70,0.00,,,0.00,Wunderground v.1.15,2013-04-27 03:55:00,